Mounds, Oklahoma
Current Conditions -  °F | °C
As of 3:53 PM on Thursday 23 Oct 2014 (Local Time) from KRVS Reporting Station
Clear Clear  
Wind Chill: 68°   Ceiling: Unl
Heat Index: 68°   Visibility: 10mi
Dew Point: 58°   Wind: 6mph
Humidity: 70%   Direction: 160°SSE
Pressure: 30.09"   Gusts: NA
Location:  35.88°N, 96.06°W
Report Text: KRVS 232053Z 16005KT 10SM CLR 20/14 A3009 RMK AO2 SLP194 60000 T02000144 58011
Loading
Personal Weather Stations






























Interactive Weather Map
Tropical Storm Tracking
New forecast layout! Learn more

10-Day Weather Forecast

Advertisements
Track Severe Weather on mobile